Time;durP1;ratioP1;P1;durP2;ratioP2;P2;SDS_P1;SDS_P2;PMS_P1;PMS_P2;Temp;Humidity;BMP_temperature;BMP_pressure;BME280_temperature;BME280_humidity;BME280_pressure;Samples;Min_cycle;Max_cycle;Signal;HPM_P1;HPM_P2
2023/04/18 00:00:00;;;;;;;23.05;12.95;;;6.90;99.90;;;;;;5063189;28;20147;-70
2023/04/18 00:02:27;;;;;;;24.67;13.70;;;6.90;99.90;;;;;;5070075;28;20048;-69
2023/04/18 00:04:53;;;;;;;23.55;13.55;;;6.80;99.90;;;;;;5046949;28;20125;-69
2023/04/18 00:07:19;;;;;;;22.58;13.45;;;6.70;99.90;;;;;;5046519;28;20071;-67
2023/04/18 00:09:45;;;;;;;21.15;13.85;;;6.70;99.90;;;;;;5046573;28;20044;-68
2023/04/18 00:12:12;;;;;;;30.17;13.10;;;6.70;99.90;;;;;;5046733;28;20099;-68
2023/04/18 00:14:41;;;;;;;22.90;13.00;;;6.70;99.90;;;;;;5063288;28;20274;-68
2023/04/18 00:17:07;;;;;;;21.05;12.60;;;6.60;99.90;;;;;;5062993;28;20042;-67
2023/04/18 00:19:48;;;;;;;20.90;12.32;;;6.60;99.90;;;;;;5062949;28;20064;-68
2023/04/18 00:22:15;;;;;;;23.30;12.70;;;6.60;99.90;;;;;;5065057;28;20056;-69
2023/04/18 00:24:41;;;;;;;21.75;13.40;;;6.60;99.90;;;;;;5066920;28;20051;-67
2023/04/18 00:27:07;;;;;;;21.67;12.60;;;6.60;99.90;;;;;;5051166;28;20484;-69
2023/04/18 00:29:33;;;;;;;17.80;12.25;;;6.50;99.90;;;;;;5050132;28;20148;-66
2023/04/18 00:31:59;;;;;;;22.35;12.27;;;6.50;99.90;;;;;;5049971;28;20499;-69
2023/04/18 00:34:24;;;;;;;24.92;10.70;;;6.50;99.90;;;;;;5049912;28;20048;-66
2023/04/18 00:36:50;;;;;;;20.77;11.32;;;6.50;99.90;;;;;;5066430;28;20085;-65
2023/04/18 00:39:16;;;;;;;17.48;9.93;;;6.60;99.90;;;;;;5049726;28;20101;-66
2023/04/18 00:41:42;;;;;;;17.85;10.18;;;6.60;99.90;;;;;;5049579;28;20228;-67
2023/04/18 00:44:08;;;;;;;17.25;9.82;;;6.60;99.90;;;;;;5049594;28;20183;-69
2023/04/18 00:46:34;;;;;;;16.50;9.98;;;6.60;99.90;;;;;;5049681;28;20032;-67
2023/04/18 00:49:00;;;;;;;18.00;10.25;;;6.50;99.90;;;;;;5066367;28;20040;-64
2023/04/18 00:51:26;;;;;;;20.38;10.23;;;6.60;99.90;;;;;;5060994;28;20052;-66
2023/04/18 00:53:53;;;;;;;16.33;9.88;;;6.50;99.90;;;;;;5061630;28;20057;-69
2023/04/18 00:56:19;;;;;;;18.73;10.88;;;6.50;99.90;;;;;;5066264;28;20046;-65
2023/04/18 00:58:45;;;;;;;18.83;10.05;;;6.50;99.90;;;;;;5048999;28;20290;-64
2023/04/18 01:01:12;;;;;;;16.63;9.93;;;6.40;99.90;;;;;;5054515;28;20381;-66
2023/04/18 01:03:39;;;;;;;21.17;9.95;;;6.40;99.90;;;;;;5049260;28;20465;-66
2023/04/18 01:06:05;;;;;;;19.33;10.18;;;6.40;99.90;;;;;;5065609;28;20060;-65
2023/04/18 01:08:31;;;;;;;18.13;9.88;;;6.40;99.90;;;;;;5061264;28;20040;-67
2023/04/18 01:10:57;;;;;;;16.15;9.82;;;6.40;99.90;;;;;;5080376;28;20540;-65
2023/04/18 01:13:22;;;;;;;16.08;9.95;;;6.30;99.90;;;;;;5065675;28;20198;-69
2023/04/18 01:15:49;;;;;;;18.33;10.73;;;6.30;99.90;;;;;;5057494;28;20546;-68
2023/04/18 01:18:16;;;;;;;20.80;11.25;;;6.30;99.90;;;;;;5068367;28;20045;-66
2023/04/18 01:20:53;;;;;;;18.63;11.32;;;6.30;99.90;;;;;;5048985;28;20782;-64
2023/04/18 01:23:19;;;;;;;18.90;10.95;;;6.30;99.90;;;;;;5048613;28;20033;-65
2023/04/18 01:25:46;;;;;;;18.75;10.95;;;6.30;99.90;;;;;;5048499;28;20051;-66
2023/04/18 01:28:14;;;;;;;19.08;11.38;;;6.30;99.90;;;;;;5065567;28;20041;-67
2023/04/18 01:30:40;;;;;;;19.27;11.85;;;6.30;99.90;;;;;;5049154;28;20763;-66
2023/04/18 01:33:06;;;;;;;21.42;11.88;;;6.30;99.90;;;;;;5055151;28;20819;-67
2023/04/18 01:35:32;;;;;;;20.42;11.90;;;6.30;99.90;;;;;;5066890;28;20041;-67
2023/04/18 01:38:01;;;;;;;23.45;11.23;;;6.30;99.90;;;;;;5056238;28;20071;-69
2023/04/18 01:40:28;;;;;;;22.45;12.95;;;6.30;99.90;;;;;;5085325;28;20105;-68
2023/04/18 01:42:54;;;;;;;21.17;12.38;;;6.30;99.90;;;;;;5065629;28;20086;-68
2023/04/18 01:45:21;;;;;;;18.55;11.90;;;6.30;99.90;;;;;;5065044;28;20071;-65
2023/04/18 01:47:47;;;;;;;22.27;12.68;;;6.30;99.90;;;;;;5048700;28;20036;-68
2023/04/18 01:50:13;;;;;;;19.45;12.10;;;6.40;99.90;;;;;;5047842;28;20082;-64
2023/04/18 01:52:39;;;;;;;22.85;12.80;;;6.40;99.90;;;;;;5065071;28;20040;-64
2023/04/18 01:55:07;;;;;;;20.90;12.05;;;6.40;99.90;;;;;;5064629;28;20071;-65
2023/04/18 01:57:35;;;;;;;23.80;13.32;;;6.40;99.90;;;;;;5047541;28;20064;-69
2023/04/18 02:00:03;;;;;;;22.20;12.32;;;6.40;99.90;;;;;;5048078;28;20133;-66
2023/04/18 02:02:32;;;;;;;19.60;12.07;;;6.50;99.90;;;;;;5070409;28;20639;-67
2023/04/18 02:04:57;;;;;;;20.55;11.95;;;6.50;99.90;;;;;;5086284;28;20059;-68
2023/04/18 02:07:26;;;;;;;19.23;11.80;;;6.50;99.90;;;;;;5063896;28;20033;-65
2023/04/18 02:09:52;;;;;;;21.45;11.90;;;6.50;99.90;;;;;;5065827;28;20520;-65
2023/04/18 02:12:18;;;;;;;22.00;12.60;;;6.50;99.90;;;;;;5054200;28;20062;-67
2023/04/18 02:14:43;;;;;;;22.65;12.45;;;6.50;99.90;;;;;;5084513;28;20047;-64
2023/04/18 02:17:09;;;;;;;20.88;12.27;;;6.50;99.90;;;;;;5060547;28;20099;-66
2023/04/18 02:19:35;;;;;;;19.95;11.52;;;6.50;99.90;;;;;;5047675;28;20119;-67
2023/04/18 02:22:01;;;;;;;22.42;12.52;;;6.60;99.90;;;;;;5064182;28;20052;-65
2023/04/18 02:24:27;;;;;;;21.02;11.63;;;6.60;99.90;;;;;;5047740;28;20223;-65
2023/04/18 02:26:53;;;;;;;23.95;12.95;;;6.60;99.90;;;;;;5053851;28;20039;-69
2023/04/18 02:29:19;;;;;;;23.73;11.65;;;6.60;99.90;;;;;;5064507;28;20399;-69
2023/04/18 02:31:45;;;;;;;18.15;10.93;;;6.60;99.90;;;;;;5064378;28;20190;-64
2023/04/18 02:34:10;;;;;;;18.67;11.43;;;6.70;99.90;;;;;;5047662;28;20501;-64
2023/04/18 02:36:36;;;;;;;20.08;10.25;;;6.60;99.90;;;;;;5064427;28;20052;-67
2023/04/18 02:39:02;;;;;;;18.02;10.20;;;6.70;99.90;;;;;;5047526;28;20044;-65
2023/04/18 02:41:28;;;;;;;19.27;10.98;;;6.70;99.90;;;;;;5047687;28;20395;-63
2023/04/18 02:43:55;;;;;;;16.85;9.20;;;6.70;99.90;;;;;;5063565;28;20532;-65
2023/04/18 02:46:23;;;;;;;18.27;10.15;;;6.70;99.90;;;;;;5070130;28;20433;-67
2023/04/18 02:48:49;;;;;;;15.35;9.65;;;6.80;99.90;;;;;;5047755;28;20480;-65
2023/04/18 02:51:15;;;;;;;15.13;10.02;;;6.80;99.90;;;;;;5063902;28;20558;-70
2023/04/18 02:53:41;;;;;;;19.90;9.77;;;6.80;99.90;;;;;;5046937;28;20139;-69
2023/04/18 02:56:07;;;;;;;16.02;9.25;;;6.80;99.90;;;;;;5047472;28;20534;-66
2023/04/18 02:58:34;;;;;;;16.55;9.75;;;6.80;99.90;;;;;;5046759;28;20121;-66
2023/04/18 03:01:00;;;;;;;17.55;9.48;;;6.80;99.90;;;;;;5047419;28;20033;-64
2023/04/18 03:03:26;;;;;;;16.17;9.77;;;6.80;99.90;;;;;;5053587;28;20102;-67
2023/04/18 03:05:52;;;;;;;18.35;10.00;;;6.70;99.90;;;;;;5046501;28;20072;-69
2023/04/18 03:08:17;;;;;;;17.67;9.60;;;6.70;99.90;;;;;;5051500;28;20048;-66
2023/04/18 03:10:43;;;;;;;17.20;9.15;;;6.70;99.90;;;;;;5063734;28;20547;-66
2023/04/18 03:13:09;;;;;;;16.85;9.70;;;6.70;99.90;;;;;;5059440;28;20131;-64
2023/04/18 03:15:36;;;;;;;20.73;9.73;;;6.70;99.90;;;;;;5067115;28;20127;-68
2023/04/18 03:18:02;;;;;;;18.70;10.10;;;6.70;99.90;;;;;;5049746;28;20501;-67
2023/04/18 03:20:28;;;;;;;16.63;9.55;;;6.70;99.90;;;;;;5063629;28;20124;-64
2023/04/18 03:22:54;;;;;;;18.92;9.88;;;6.80;99.90;;;;;;5063574;28;20321;-68
2023/04/18 03:25:19;;;;;;;17.25;9.32;;;6.70;99.90;;;;;;5073960;28;20368;-67
2023/04/18 03:27:46;;;;;;;18.67;8.85;;;6.80;99.90;;;;;;5048588;28;20044;-68
2023/04/18 03:30:16;;;;;;;16.08;8.48;;;6.80;99.90;;;;;;5063591;28;20096;-67
2023/04/18 03:32:42;;;;;;;13.90;8.25;;;6.80;99.90;;;;;;5063619;28;20131;-64
2023/04/18 03:35:08;;;;;;;17.58;9.63;;;6.80;99.90;;;;;;5063582;28;20087;-67
2023/04/18 03:37:34;;;;;;;16.15;8.73;;;6.70;99.90;;;;;;5063233;28;20085;-66
2023/04/18 03:40:00;;;;;;;17.67;8.70;;;6.80;99.90;;;;;;5046853;28;20305;-65
2023/04/18 03:42:29;;;;;;;20.83;8.88;;;6.70;99.90;;;;;;5047435;28;20513;-69
2023/04/18 03:44:55;;;;;;;13.60;8.05;;;6.80;99.90;;;;;;5063965;28;20127;-68
2023/04/18 03:47:21;;;;;;;15.35;8.43;;;6.80;99.90;;;;;;5063788;28;20041;-65
2023/04/18 03:49:47;;;;;;;13.48;7.68;;;6.80;99.90;;;;;;5046616;28;20059;-65
2023/04/18 03:52:13;;;;;;;16.23;7.75;;;6.80;99.90;;;;;;5064426;28;20053;-66
2023/04/18 03:54:38;;;;;;;16.38;8.02;;;6.80;99.90;;;;;;5083469;28;20166;-67
2023/04/18 03:57:04;;;;;;;14.45;7.63;;;6.80;99.90;;;;;;5062236;28;20040;-68
2023/04/18 03:59:30;;;;;;;13.93;8.38;;;6.80;99.90;;;;;;5067206;28;20127;-66
2023/04/18 04:01:59;;;;;;;18.08;8.50;;;6.80;99.90;;;;;;5071336;28;20036;-66
2023/04/18 04:04:25;;;;;;;15.27;7.88;;;6.80;99.90;;;;;;5052269;28;20407;-68
2023/04/18 04:06:53;;;;;;;13.13;7.97;;;6.80;99.90;;;;;;5050247;28;20086;-66
2023/04/18 04:09:19;;;;;;;15.90;8.02;;;6.90;99.90;;;;;;5050723;28;20506;-66
2023/04/18 04:11:45;;;;;;;14.70;7.95;;;6.90;99.90;;;;;;5050484;28;20480;-63
2023/04/18 04:14:11;;;;;;;13.50;7.60;;;6.90;99.90;;;;;;5070436;28;20051;-66
2023/04/18 04:16:37;;;;;;;12.25;7.32;;;6.90;99.90;;;;;;5067525;28;20071;-64
2023/04/18 04:19:03;;;;;;;12.82;7.25;;;6.90;99.90;;;;;;5066972;28;20080;-66
2023/04/18 04:21:32;;;;;;;15.32;7.63;;;6.90;99.90;;;;;;5067011;28;20071;-67
2023/04/18 04:24:00;;;;;;;13.25;7.50;;;6.90;99.90;;;;;;5066504;28;20411;-67
2023/04/18 04:26:26;;;;;;;14.77;7.72;;;6.90;99.90;;;;;;5049797;28;20132;-67
2023/04/18 04:28:52;;;;;;;13.50;7.43;;;6.80;99.90;;;;;;5050215;28;20044;-67
2023/04/18 04:31:20;;;;;;;14.30;7.57;;;6.90;99.90;;;;;;5049654;28;20044;-64
2023/04/18 04:33:46;;;;;;;14.93;7.75;;;6.80;99.90;;;;;;5049851;28;20044;-69
2023/04/18 04:36:13;;;;;;;14.13;7.25;;;6.80;99.90;;;;;;5049793;28;20048;-65
2023/04/18 04:38:40;;;;;;;13.95;8.00;;;6.80;99.90;;;;;;5049725;28;20101;-70
2023/04/18 04:41:06;;;;;;;14.95;8.35;;;6.80;99.90;;;;;;5050005;28;20286;-67
2023/04/18 04:43:33;;;;;;;15.85;8.45;;;6.80;99.90;;;;;;5050025;28;20293;-67
2023/04/18 04:46:02;;;;;;;16.90;8.55;;;6.70;99.90;;;;;;5067533;28;20048;-67
2023/04/18 04:48:28;;;;;;;16.15;9.20;;;6.70;99.90;;;;;;5071370;28;20071;-66
2023/04/18 04:50:57;;;;;;;17.13;8.80;;;6.70;99.90;;;;;;5077009;28;20127;-67
2023/04/18 04:53:29;;;;;;;14.93;8.40;;;6.70;99.90;;;;;;5074811;28;20074;-66
2023/04/18 04:55:55;;;;;;;15.93;8.52;;;6.70;99.90;;;;;;5066385;28;20561;-63
2023/04/18 04:58:21;;;;;;;17.20;8.80;;;6.70;99.90;;;;;;5049339;28;20110;-68
2023/04/18 05:00:49;;;;;;;16.45;9.35;;;6.70;99.90;;;;;;5069643;28;20494;-68
2023/04/18 05:03:18;;;;;;;18.83;10.00;;;6.70;99.90;;;;;;5054129;28;20411;-69
2023/04/18 05:05:44;;;;;;;15.15;9.50;;;6.70;99.90;;;;;;5066263;28;20044;-67
2023/04/18 05:08:10;;;;;;;17.50;9.90;;;6.70;99.90;;;;;;5048684;28;20040;-67
2023/04/18 05:10:36;;;;;;;18.13;10.07;;;6.70;99.90;;;;;;5049514;28;20062;-67
2023/04/18 05:13:03;;;;;;;18.52;10.20;;;6.70;99.90;;;;;;5049426;28;20082;-66
2023/04/18 05:15:30;;;;;;;15.98;9.85;;;6.70;99.90;;;;;;5081704;28;20048;-68
2023/04/18 05:17:56;;;;;;;15.52;10.23;;;6.70;99.90;;;;;;5072828;28;20079;-68
2023/04/18 05:20:23;;;;;;;21.35;10.88;;;6.70;99.90;;;;;;5048862;28;20052;-64
2023/04/18 05:22:49;;;;;;;21.15;10.60;;;6.80;99.90;;;;;;5053372;28;20533;-66
2023/04/18 05:25:15;;;;;;;16.83;10.15;;;6.80;99.90;;;;;;5062491;28;20044;-68
2023/04/18 05:27:42;;;;;;;19.95;11.50;;;6.80;99.90;;;;;;5056843;28;20040;-67
2023/04/18 05:30:08;;;;;;;21.02;11.05;;;6.80;99.90;;;;;;5082486;28;20040;-68
2023/04/18 05:32:34;;;;;;;20.15;11.48;;;6.80;99.90;;;;;;5063062;28;20045;-67
2023/04/18 05:35:01;;;;;;;19.23;11.68;;;6.90;99.90;;;;;;5049018;28;20391;-67
2023/04/18 05:37:27;;;;;;;19.50;11.05;;;6.90;99.90;;;;;;5048605;28;20041;-65
2023/04/18 05:39:52;;;;;;;20.08;12.05;;;6.90;99.90;;;;;;5069369;28;20553;-66
2023/04/18 05:42:19;;;;;;;19.95;11.70;;;6.90;99.90;;;;;;5059445;28;20134;-70
2023/04/18 05:44:45;;;;;;;18.63;11.02;;;7.00;99.90;;;;;;5074305;28;20067;-63
2023/04/18 05:47:11;;;;;;;18.67;11.02;;;7.00;99.90;;;;;;5057301;28;20068;-65
2023/04/18 05:49:42;;;;;;;21.58;12.63;;;7.00;99.90;;;;;;5072366;28;20036;-66
2023/04/18 05:52:10;;;;;;;20.73;11.63;;;7.00;99.90;;;;;;5072818;28;20048;-66
2023/04/18 05:54:36;;;;;;;18.27;11.60;;;7.10;99.90;;;;;;5055071;28;20534;-69
2023/04/18 05:57:02;;;;;;;20.23;12.65;;;7.10;99.90;;;;;;5069859;28;20082;-65
2023/04/18 05:59:28;;;;;;;20.25;12.32;;;7.20;99.90;;;;;;5060388;28;20082;-66
2023/04/18 06:01:54;;;;;;;17.88;11.57;;;7.20;99.90;;;;;;5063621;28;20426;-67
2023/04/18 06:04:22;;;;;;;24.58;12.43;;;7.30;99.90;;;;;;5072370;28;20535;-65
2023/04/18 06:06:48;;;;;;;22.92;11.80;;;7.50;99.90;;;;;;5062715;28;20403;-67
2023/04/18 06:09:14;;;;;;;20.98;11.55;;;7.70;99.90;;;;;;5063449;28;20127;-63
2023/04/18 06:11:40;;;;;;;18.88;11.38;;;7.80;99.90;;;;;;5067145;28;20131;-64
2023/04/18 06:14:06;;;;;;;19.15;11.00;;;7.80;99.90;;;;;;5068298;28;20044;-64
2023/04/18 06:16:32;;;;;;;21.02;11.88;;;7.60;99.90;;;;;;5047515;28;20048;-65
2023/04/18 06:18:58;;;;;;;21.70;11.13;;;7.50;99.90;;;;;;5050362;28;20106;-64
2023/04/18 06:21:25;;;;;;;19.75;10.65;;;7.50;99.90;;;;;;5051537;28;20547;-65
2023/04/18 06:23:51;;;;;;;20.10;11.52;;;7.40;99.90;;;;;;5048653;28;20094;-67
2023/04/18 06:26:19;;;;;;;17.73;10.75;;;7.40;99.90;;;;;;5055395;28;20466;-68
2023/04/18 06:28:46;;;;;;;17.33;10.75;;;7.40;99.90;;;;;;5048195;28;20543;-67
2023/04/18 06:31:11;;;;;;;17.60;10.50;;;7.40;99.90;;;;;;5064118;28;20163;-64
2023/04/18 06:33:37;;;;;;;19.17;10.75;;;7.50;99.90;;;;;;5046730;28;20186;-63
2023/04/18 06:36:07;;;;;;;18.20;10.13;;;7.60;99.90;;;;;;5051144;28;20174;-67
2023/04/18 06:38:33;;;;;;;20.20;10.43;;;7.70;99.90;;;;;;5072306;28;20052;-67
2023/04/18 06:40:59;;;;;;;17.67;10.63;;;8.00;99.90;;;;;;5074364;28;20236;-65
2023/04/18 06:43:25;;;;;;;18.33;10.48;;;8.20;99.90;;;;;;5075094;28;20128;-64
2023/04/18 06:45:51;;;;;;;14.95;10.07;;;8.50;99.90;;;;;;5075221;28;20120;-64
2023/04/18 06:48:17;;;;;;;17.48;10.68;;;8.80;99.90;;;;;;5055228;28;20143;-64
2023/04/18 06:50:43;;;;;;;21.95;11.02;;;9.10;99.90;;;;;;5088477;28;20036;-65
2023/04/18 06:53:09;;;;;;;16.50;9.68;;;9.10;99.90;;;;;;5047527;28;20055;-64
2023/04/18 06:55:35;;;;;;;18.10;10.80;;;9.40;99.90;;;;;;5064124;28;20043;-65
2023/04/18 06:58:01;;;;;;;17.88;10.77;;;9.50;99.90;;;;;;5083786;28;20462;-64
2023/04/18 07:00:27;;;;;;;15.90;10.15;;;9.60;99.90;;;;;;5079352;28;20043;-63
2023/04/18 07:02:54;;;;;;;17.48;10.18;;;9.60;99.90;;;;;;5050585;28;20032;-66
2023/04/18 07:05:20;;;;;;;16.85;9.95;;;9.40;99.90;;;;;;5067141;28;20069;-67
2023/04/18 07:07:46;;;;;;;48.22;11.88;;;9.40;99.90;;;;;;5077910;28;20029;-66
2023/04/18 07:10:12;;;;;;;19.13;10.10;;;9.60;99.90;;;;;;5050747;28;20402;-63
2023/04/18 07:12:38;;;;;;;16.70;9.48;;;9.60;99.90;;;;;;5084130;28;20039;-65
2023/04/18 07:15:04;;;;;;;17.17;9.88;;;9.70;99.90;;;;;;5068740;28;20064;-65
2023/04/18 07:17:30;;;;;;;17.02;10.07;;;9.50;99.90;;;;;;5064983;28;20515;-64
2023/04/18 07:20:00;;;;;;;16.50;9.45;;;9.40;99.90;;;;;;5065242;28;20045;-64
2023/04/18 07:22:26;;;;;;;15.30;10.00;;;9.20;99.90;;;;;;5064029;28;20043;-65
2023/04/18 07:24:51;;;;;;;19.50;10.60;;;9.10;99.90;;;;;;5063576;28;20447;-67
2023/04/18 07:27:17;;;;;;;16.10;9.65;;;9.00;99.90;;;;;;5064061;28;20411;-66
2023/04/18 07:29:43;;;;;;;16.08;9.82;;;9.00;99.90;;;;;;5050995;28;20050;-65
2023/04/18 07:32:09;;;;;;;18.05;10.40;;;9.20;99.90;;;;;;5082962;28;20040;-64
2023/04/18 07:34:36;;;;;;;20.33;9.93;;;9.50;99.20;;;;;;5073128;28;20130;-67
2023/04/18 07:37:02;;;;;;;15.55;9.50;;;9.70;98.90;;;;;;5071101;28;20036;-65
2023/04/18 07:39:28;;;;;;;21.98;10.55;;;9.80;99.90;;;;;;5051177;28;20129;-64
2023/04/18 07:41:54;;;;;;;19.08;9.93;;;9.70;97.50;;;;;;5068279;28;20071;-65
2023/04/18 07:44:20;;;;;;;16.95;10.35;;;9.40;98.70;;;;;;5069255;28;20051;-67
2023/04/18 07:46:46;;;;;;;18.15;9.80;;;9.40;99.20;;;;;;5067714;28;20122;-64
2023/04/18 07:49:12;;;;;;;16.83;10.55;;;9.20;99.10;;;;;;5050820;28;20090;-65
2023/04/18 07:51:38;;;;;;;16.05;10.25;;;9.20;99.70;;;;;;5084591;28;20513;-66
2023/04/18 07:54:04;;;;;;;18.20;10.00;;;9.20;99.30;;;;;;5070949;28;20036;-66
2023/04/18 07:56:30;;;;;;;17.95;10.43;;;9.40;99.50;;;;;;5057124;28;20052;-65
2023/04/18 07:58:56;;;;;;;19.55;11.02;;;9.70;98.00;;;;;;5087326;28;20051;-66
2023/04/18 08:01:23;;;;;;;15.52;10.60;;;10.00;98.60;;;;;;5087384;28;20113;-66
2023/04/18 08:03:50;;;;;;;15.68;10.00;;;10.20;97.60;;;;;;5067307;28;20055;-65
2023/04/18 08:06:16;;;;;;;16.63;10.00;;;10.20;98.00;;;;;;5050565;28;20032;-65
2023/04/18 08:08:42;;;;;;;21.63;10.38;;;10.20;96.80;;;;;;5067499;28;20033;-64
2023/04/18 08:11:08;;;;;;;17.88;10.27;;;10.30;97.50;;;;;;5068621;28;20094;-66
2023/04/18 08:13:34;;;;;;;15.98;9.98;;;10.50;96.80;;;;;;5050498;28;20048;-65
2023/04/18 08:16:01;;;;;;;21.27;10.80;;;11.00;96.70;;;;;;5050632;28;20450;-62
2023/04/18 08:18:27;;;;;;;16.48;9.45;;;11.40;95.40;;;;;;5057777;28;20509;-66
2023/04/18 08:20:53;;;;;;;18.13;9.48;;;11.60;95.60;;;;;;5070403;28;20028;-64
2023/04/18 08:23:19;;;;;;;19.30;9.85;;;11.70;95.20;;;;;;5050273;28;20050;-66
2023/04/18 08:25:46;;;;;;;16.90;9.32;;;11.80;93.80;;;;;;5066939;28;20454;-66
2023/04/18 08:28:12;;;;;;;18.67;9.73;;;11.70;93.90;;;;;;5049901;28;20398;-64
2023/04/18 08:30:41;;;;;;;15.55;9.07;;;11.90;93.40;;;;;;5049898;28;20131;-63
2023/04/18 08:33:08;;;;;;;15.45;9.20;;;12.30;93.80;;;;;;5050364;28;20506;-65
2023/04/18 08:35:34;;;;;;;14.05;8.70;;;12.00;92.40;;;;;;5050273;28;20045;-64
2023/04/18 08:38:01;;;;;;;13.38;8.73;;;11.70;92.90;;;;;;5066672;28;20344;-65
2023/04/18 08:40:29;;;;;;;14.60;7.93;;;11.70;93.50;;;;;;5049813;28;20044;-65
2023/04/18 08:42:57;;;;;;;12.48;8.10;;;11.60;94.40;;;;;;5049216;28;20177;-65
2023/04/18 08:45:23;;;;;;;13.98;7.35;;;11.40;93.80;;;;;;5049697;28;20076;-63
2023/04/18 08:47:50;;;;;;;12.88;8.02;;;11.60;94.80;;;;;;5056364;28;20653;-64
2023/04/18 08:50:17;;;;;;;15.75;8.20;;;11.90;95.00;;;;;;5049725;28;20054;-63
2023/04/18 08:52:49;;;;;;;14.57;7.78;;;12.30;94.60;;;;;;5049833;28;20499;-65
2023/04/18 08:55:15;;;;;;;14.63;8.70;;;12.40;92.80;;;;;;5066438;28;20480;-65
2023/04/18 08:57:41;;;;;;;15.10;8.40;;;12.70;93.20;;;;;;5049383;28;20056;-68
2023/04/18 09:00:10;;;;;;;15.43;8.13;;;12.90;92.20;;;;;;5049488;28;20044;-63
2023/04/18 09:02:41;;;;;;;17.38;8.75;;;13.10;91.90;;;;;;5066046;28;20041;-65
2023/04/18 09:05:21;;;;;;;19.45;9.48;;;12.80;90.50;;;;;;5066212;28;20445;-64
2023/04/18 09:07:49;;;;;;;14.98;7.85;;;12.90;93.60;;;;;;5065818;28;20177;-65
2023/04/18 09:10:27;;;;;;;15.60;8.15;;;12.40;91.40;;;;;;5066393;28;20044;-65
2023/04/18 09:12:55;;;;;;;13.27;8.23;;;12.20;94.20;;;;;;5033076;28;20045;-67
2023/04/18 09:15:25;;;;;;;18.52;8.57;;;12.30;92.90;;;;;;5049519;28;20470;-67
2023/04/18 09:17:53;;;;;;;14.48;7.80;;;12.60;93.40;;;;;;5067586;28;20032;-65
2023/04/18 09:20:33;;;;;;;11.43;7.57;;;12.90;93.20;;;;;;5069238;28;20447;-63
2023/04/18 09:23:01;;;;;;;12.65;7.65;;;13.30;92.20;;;;;;5078531;28;20082;-66
2023/04/18 09:25:36;;;;;;;16.95;7.95;;;13.70;92.10;;;;;;5065851;28;20493;-64
2023/04/18 09:28:04;;;;;;;21.13;8.48;;;13.60;90.00;;;;;;5049223;28;20052;-64
2023/04/18 09:30:38;;;;;;;15.45;8.10;;;13.30;90.30;;;;;;5049350;28;20044;-66
2023/04/18 09:33:09;;;;;;;19.50;8.13;;;12.70;90.60;;;;;;5049236;28;20563;-66
2023/04/18 09:35:36;;;;;;;12.43;7.63;;;12.40;92.20;;;;;;5065448;28;20045;-66
2023/04/18 09:38:02;;;;;;;13.43;8.85;;;12.30;91.40;;;;;;5048957;28;20592;-66
2023/04/18 09:40:29;;;;;;;15.55;7.95;;;12.10;92.00;;;;;;5048777;28;20127;-64
2023/04/18 09:42:55;;;;;;;13.90;8.77;;;12.00;92.00;;;;;;5048588;28;20079;-65
2023/04/18 09:45:22;;;;;;;17.75;9.52;;;12.20;93.20;;;;;;5066846;28;20045;-63
2023/04/18 09:47:48;;;;;;;17.27;8.60;;;12.40;93.10;;;;;;5048618;28;20036;-65
2023/04/18 09:50:19;;;;;;;15.07;8.27;;;12.70;92.10;;;;;;5054177;28;20622;-67
2023/04/18 09:52:46;;;;;;;14.05;8.40;;;12.50;90.40;;;;;;5063707;28;20037;-63
2023/04/18 09:55:15;;;;;;;19.33;8.82;;;12.40;93.30;;;;;;5048801;28;20067;-65
2023/04/18 09:57:47;;;;;;;13.25;8.45;;;12.30;92.60;;;;;;5048243;28;20052;-67
2023/04/18 10:00:23;;;;;;;12.55;8.05;;;12.20;92.80;;;;;;5048459;28;20124;-65
2023/04/18 10:02:56;;;;;;;14.23;8.63;;;12.20;93.40;;;;;;5065186;28;20048;-64
2023/04/18 10:05:25;;;;;;;14.07;8.83;;;12.30;93.20;;;;;;5048410;28;20044;-64
2023/04/18 10:07:52;;;;;;;16.55;8.75;;;12.40;93.70;;;;;;5048301;28;20485;-64
2023/04/18 10:10:19;;;;;;;16.48;8.65;;;12.50;93.00;;;;;;5065029;28;20037;-66
2023/04/18 10:12:49;;;;;;;19.02;9.10;;;12.80;91.90;;;;;;5070295;28;20097;-65
2023/04/18 10:15:16;;;;;;;15.05;7.85;;;13.00;91.40;;;;;;5068032;28;20286;-63
2023/04/18 10:18:05;;;;;;;16.58;9.27;;;13.20;89.30;;;;;;5067227;28;20525;-62
2023/04/18 10:20:33;;;;;;;13.95;8.68;;;13.10;90.50;;;;;;5068337;28;20040;-64
2023/04/18 10:23:19;;;;;;;15.40;8.52;;;12.90;91.00;;;;;;5059812;28;20040;-67
2023/04/18 10:25:48;;;;;;;12.65;8.70;;;12.60;89.80;;;;;;5048035;28;20044;-67
2023/04/18 10:28:14;;;;;;;15.65;9.27;;;13.10;91.30;;;;;;5048092;28;20466;-66
2023/04/18 10:30:40;;;;;;;16.50;9.02;;;13.30;90.60;;;;;;5047764;28;20132;-66
2023/04/18 10:33:40;;;;;;;14.98;9.40;;;13.20;90.70;;;;;;5068183;28;20568;-70
2023/04/18 10:36:11;;;;;;;16.88;9.02;;;13.10;90.00;;;;;;5024680;28;20052;-64
2023/04/18 10:38:44;;;;;;;14.30;8.02;;;13.10;92.00;;;;;;5049397;28;20127;-64
2023/04/18 10:41:12;;;;;;;14.82;8.65;;;13.10;91.50;;;;;;5047670;28;20049;-65
2023/04/18 10:44:17;;;;;;;12.00;8.07;;;13.00;91.40;;;;;;5047778;28;20036;-65
2023/04/18 10:46:51;;;;;;;13.73;7.75;;;12.80;94.20;;;;;;4987180;28;20045;-64
2023/04/18 10:49:17;;;;;;;15.45;7.75;;;12.90;92.50;;;;;;5059285;28;20537;-64
2023/04/18 10:51:48;;;;;;;12.95;8.38;;;12.90;92.80;;;;;;5049531;28;20036;-65
2023/04/18 10:54:29;;;;;;;17.05;8.23;;;13.00;93.00;;;;;;5064124;28;20052;-64
2023/04/18 10:56:56;;;;;;;13.63;8.73;;;13.30;93.70;;;;;;5047625;28;20472;-65
2023/04/18 10:59:24;;;;;;;14.15;9.50;;;13.40;91.90;;;;;;5064148;28;20412;-69
2023/04/18 11:01:56;;;;;;;13.52;8.75;;;13.50;92.10;;;;;;5047029;28;20423;-64
2023/04/18 11:04:24;;;;;;;12.27;7.50;;;13.90;93.40;;;;;;5058251;28;20401;-65
2023/04/18 11:06:56;;;;;;;12.73;7.80;;;14.20;92.00;;;;;;5046714;28;20036;-64
2023/04/18 11:09:23;;;;;;;15.60;8.52;;;14.10;91.00;;;;;;5063949;28;20569;-63
2023/04/18 11:12:09;;;;;;;12.57;7.88;;;14.40;91.40;;;;;;5047571;28;20411;-66
2023/04/18 11:14:42;;;;;;;11.68;7.10;;;14.50;89.40;;;;;;5032237;28;20044;-69
2023/04/18 11:17:37;;;;;;;13.85;7.97;;;14.40;90.10;;;;;;5067115;28;20044;-63
2023/04/18 11:20:07;;;;;;;12.30;7.15;;;14.60;92.00;;;;;;5078350;28;20443;-68
2023/04/18 11:22:44;;;;;;;16.30;8.90;;;14.40;88.50;;;;;;5063924;28;20066;-67
2023/04/18 11:25:10;;;;;;;15.25;7.88;;;14.10;89.90;;;;;;5064131;28;20052;-65
2023/04/18 11:27:36;;;;;;;12.48;8.02;;;14.20;90.80;;;;;;5063900;28;20048;-66
2023/04/18 11:30:02;;;;;;;13.18;7.78;;;14.40;91.20;;;;;;5047230;28;20458;-67
2023/04/18 11:32:28;;;;;;;16.17;8.00;;;14.30;90.50;;;;;;5047410;28;20076;-69
2023/04/18 11:34:54;;;;;;;14.95;9.13;;;14.60;90.90;;;;;;5064014;28;20115;-65
2023/04/18 11:37:21;;;;;;;14.48;8.50;;;14.50;90.80;;;;;;5063550;28;20044;-64
2023/04/18 11:39:47;;;;;;;12.65;7.78;;;14.50;90.00;;;;;;5046987;28;20114;-64
2023/04/18 11:42:13;;;;;;;14.60;8.15;;;14.20;89.20;;;;;;5064019;28;20367;-67
2023/04/18 11:44:41;;;;;;;14.27;7.97;;;14.00;90.50;;;;;;5064047;28;20116;-63
2023/04/18 11:47:42;;;;;;;14.98;7.90;;;14.20;92.30;;;;;;5049977;28;20040;-66
2023/04/18 11:50:10;;;;;;;13.65;8.80;;;14.80;92.80;;;;;;5029971;28;20060;-63
2023/04/18 11:52:39;;;;;;;13.98;8.13;;;14.80;90.50;;;;;;5063205;28;20535;-66
2023/04/18 11:55:20;;;;;;;12.32;8.05;;;14.50;91.10;;;;;;5047093;28;20048;-65
2023/04/18 11:57:50;;;;;;;14.38;7.97;;;14.40;92.10;;;;;;5046954;28;20418;-65
2023/04/18 12:00:20;;;;;;;11.27;7.35;;;14.40;91.90;;;;;;5063991;28;20166;-66
2023/04/18 12:02:48;;;;;;;12.00;7.18;;;14.50;93.40;;;;;;5046520;28;20040;-67
2023/04/18 12:05:25;;;;;;;12.90;5.57;;;14.30;90.30;;;;;;5063717;28;20491;-63
2023/04/18 12:07:51;;;;;;;11.45;5.82;;;13.90;91.20;;;;;;5069567;28;20036;-66
2023/04/18 12:10:28;;;;;;;10.57;6.07;;;13.80;90.70;;;;;;5046817;28;20372;-65
2023/04/18 12:12:59;;;;;;;9.70;6.85;;;14.10;91.70;;;;;;5047109;28;20150;-67
2023/04/18 12:15:27;;;;;;;10.00;5.97;;;13.90;91.10;;;;;;5046664;28;20046;-66
2023/04/18 12:18:01;;;;;;;10.25;6.38;;;14.10;91.20;;;;;;5048055;28;20037;-62
2023/04/18 12:20:46;;;;;;;12.00;6.75;;;14.20;92.50;;;;;;5050483;28;20052;-66
2023/04/18 12:23:32;;;;;;;9.98;6.30;;;14.20;90.20;;;;;;5050372;28;20091;-63
2023/04/18 12:26:03;;;;;;;11.35;6.13;;;14.50;91.70;;;;;;5067294;28;20063;-63
2023/04/18 12:28:29;;;;;;;10.02;5.70;;;14.60;90.20;;;;;;5049921;28;20469;-63
2023/04/18 12:30:56;;;;;;;9.60;5.53;;;14.20;89.40;;;;;;5056270;28;20040;-67
2023/04/18 12:33:22;;;;;;;9.20;5.80;;;13.90;90.00;;;;;;5078030;28;20054;-65
2023/04/18 12:35:48;;;;;;;9.45;5.72;;;13.70;90.30;;;;;;5069929;28;20039;-65
2023/04/18 12:38:21;;;;;;;9.27;4.90;;;13.60;91.10;;;;;;5061873;28;20134;-62
2023/04/18 12:40:47;;;;;;;10.35;5.88;;;13.70;90.90;;;;;;5068714;28;20052;-63